sensor_id;sensor_type;location;lat;lon;timestamp;pressure;altitude;pressure_sealevel;temperature;humidity
63691;BME280;49837;57.280;27.070;2022-10-16T00:00:16;100378.67;;;8.44;90.75
63691;BME280;49837;57.280;27.070;2022-10-16T00:01:17;100377.31;;;8.43;90.8
63691;BME280;49837;57.280;27.070;2022-10-16T00:02:16;100380.8;;;8.43;90.76
63691;BME280;49837;57.280;27.070;2022-10-16T00:03:17;100377.92;;;8.41;90.82
63691;BME280;49837;57.280;27.070;2022-10-16T00:04:17;100376.44;;;8.39;90.88
63691;BME280;49837;57.280;27.070;2022-10-16T00:05:17;100376.68;;;8.36;90.99
63691;BME280;49837;57.280;27.070;2022-10-16T00:06:19;100376.22;;;8.34;91.16
63691;BME280;49837;57.280;27.070;2022-10-16T00:07:18;100375.38;;;8.33;91.2
63691;BME280;49837;57.280;27.070;2022-10-16T00:08:19;100374.54;;;8.35;91.2
63691;BME280;49837;57.280;27.070;2022-10-16T00:09:19;100371.94;;;8.35;91.15
63691;BME280;49837;57.280;27.070;2022-10-16T00:10:19;100374.73;;;8.32;91.25
63691;BME280;49837;57.280;27.070;2022-10-16T00:11:25;100373.86;;;8.3;91.27
63691;BME280;49837;57.280;27.070;2022-10-16T00:12:23;100372.19;;;8.25;91.34
63691;BME280;49837;57.280;27.070;2022-10-16T00:13:24;100374.26;;;8.22;91.46
63691;BME280;49837;57.280;27.070;2022-10-16T00:14:24;100368.76;;;8.23;91.59
63691;BME280;49837;57.280;27.070;2022-10-16T00:15:24;100369.42;;;8.23;91.49
63691;BME280;49837;57.280;27.070;2022-10-16T00:16:26;100367.19;;;8.22;91.48
63691;BME280;49837;57.280;27.070;2022-10-16T00:17:25;100368.58;;;8.22;91.65
63691;BME280;49837;57.280;27.070;2022-10-16T00:18:27;100367.09;;;8.22;91.68
63691;BME280;49837;57.280;27.070;2022-10-16T00:19:26;100367.92;;;8.23;91.61
63691;BME280;49837;57.280;27.070;2022-10-16T00:20:26;100368.2;;;8.21;91.63
63691;BME280;49837;57.280;27.070;2022-10-16T00:21:29;100366.65;;;8.19;91.58
63691;BME280;49837;57.280;27.070;2022-10-16T00:22:27;100368.57;;;8.19;91.68
63691;BME280;49837;57.280;27.070;2022-10-16T00:23:28;100367.14;;;8.19;91.81
63691;BME280;49837;57.280;27.070;2022-10-16T00:24:28;100363.86;;;8.22;91.88
63691;BME280;49837;57.280;27.070;2022-10-16T00:25:29;100368.94;;;8.22;91.81
63691;BME280;49837;57.280;27.070;2022-10-16T00:26:31;100367.52;;;8.22;91.84
63691;BME280;49837;57.280;27.070;2022-10-16T00:27:29;100367.04;;;8.21;91.8
63691;BME280;49837;57.280;27.070;2022-10-16T00:28:30;100360.8;;;8.2;91.92
63691;BME280;49837;57.280;27.070;2022-10-16T00:29:30;100361.8;;;8.2;91.89
63691;BME280;49837;57.280;27.070;2022-10-16T00:30:31;100365.94;;;8.17;92.02
63691;BME280;49837;57.280;27.070;2022-10-16T00:31:31;100365.06;;;8.16;91.92
63691;BME280;49837;57.280;27.070;2022-10-16T00:32:31;100365.53;;;8.16;91.94
63691;BME280;49837;57.280;27.070;2022-10-16T00:33:32;100366.33;;;8.18;91.98
63691;BME280;49837;57.280;27.070;2022-10-16T00:34:32;100370.34;;;8.22;91.94
63691;BME280;49837;57.280;27.070;2022-10-16T00:35:32;100366.93;;;8.23;91.78
63691;BME280;49837;57.280;27.070;2022-10-16T00:36:33;100371.08;;;8.23;91.85
63691;BME280;49837;57.280;27.070;2022-10-16T00:37:33;100367.68;;;8.22;91.69
63691;BME280;49837;57.280;27.070;2022-10-16T00:38:34;100370.62;;;8.19;91.8
63691;BME280;49837;57.280;27.070;2022-10-16T00:39:34;100369.95;;;8.15;92.07
63691;BME280;49837;57.280;27.070;2022-10-16T00:40:35;100372.73;;;8.13;91.9
63691;BME280;49837;57.280;27.070;2022-10-16T00:41:35;100370.73;;;8.13;92.19
63691;BME280;49837;57.280;27.070;2022-10-16T00:42:36;100368.52;;;8.12;92.26
63691;BME280;49837;57.280;27.070;2022-10-16T00:45:45;100370.08;;;8.18;92.06
63691;BME280;49837;57.280;27.070;2022-10-16T00:46:45;100371.63;;;8.19;91.98
63691;BME280;49837;57.280;27.070;2022-10-16T00:47:47;100369.3;;;8.18;91.91
63691;BME280;49837;57.280;27.070;2022-10-16T00:49:50;100369.84;;;8.17;92.13
63691;BME280;49837;57.280;27.070;2022-10-16T00:50:49;100369.89;;;8.14;92.26
63691;BME280;49837;57.280;27.070;2022-10-16T00:51:53;100363.77;;;8.12;92.38
63691;BME280;49837;57.280;27.070;2022-10-16T00:52:51;100370.52;;;8.16;92.43
63691;BME280;49837;57.280;27.070;2022-10-16T00:53:51;100370.38;;;8.2;92.34
63691;BME280;49837;57.280;27.070;2022-10-16T00:54:52;100368.92;;;8.23;92.14
63691;BME280;49837;57.280;27.070;2022-10-16T00:55:52;100361.17;;;8.24;92.11
63691;BME280;49837;57.280;27.070;2022-10-16T00:56:53;100362.91;;;8.25;91.99
63691;BME280;49837;57.280;27.070;2022-10-16T00:57:53;100363.48;;;8.25;91.89
63691;BME280;49837;57.280;27.070;2022-10-16T00:58:53;100365.14;;;8.25;91.91
63691;BME280;49837;57.280;27.070;2022-10-16T00:59:53;100362.12;;;8.28;91.88
63691;BME280;49837;57.280;27.070;2022-10-16T01:00:54;100365.61;;;8.28;91.88
63691;BME280;49837;57.280;27.070;2022-10-16T01:01:56;100369.05;;;8.24;91.92
63691;BME280;49837;57.280;27.070;2022-10-16T01:02:56;100362.0;;;8.24;91.87
63691;BME280;49837;57.280;27.070;2022-10-16T01:03:55;100363.23;;;8.25;91.87
63691;BME280;49837;57.280;27.070;2022-10-16T01:04:56;100368.33;;;8.29;91.86
63691;BME280;49837;57.280;27.070;2022-10-16T01:13:33;100372.27;;;8.35;91.19
63691;BME280;49837;57.280;27.070;2022-10-16T01:14:43;100371.89;;;8.38;91.09
63691;BME280;49837;57.280;27.070;2022-10-16T01:18:46;100370.44;;;8.36;90.81
63691;BME280;49837;57.280;27.070;2022-10-16T01:21:47;100368.28;;;8.36;91.03
63691;BME280;49837;57.280;27.070;2022-10-16T01:24:06;100369.98;;;8.33;91.09
63691;BME280;49837;57.280;27.070;2022-10-16T01:24:57;100364.86;;;8.31;91.28
63691;BME280;49837;57.280;27.070;2022-10-16T01:28:06;100363.28;;;8.32;91.17
63691;BME280;49837;57.280;27.070;2022-10-16T01:31:18;100359.92;;;8.23;91.5
63691;BME280;49837;57.280;27.070;2022-10-16T01:33:30;100365.76;;;8.22;91.54
63691;BME280;49837;57.280;27.070;2022-10-16T01:34:27;100364.56;;;8.2;91.69
63691;BME280;49837;57.280;27.070;2022-10-16T01:35:31;100363.43;;;8.22;91.64
63691;BME280;49837;57.280;27.070;2022-10-16T01:36:45;100361.39;;;8.25;91.54
63691;BME280;49837;57.280;27.070;2022-10-16T01:38:39;100365.8;;;8.26;91.53
63691;BME280;49837;57.280;27.070;2022-10-16T01:39:41;100363.41;;;8.29;91.38
63691;BME280;49837;57.280;27.070;2022-10-16T01:40:46;100364.34;;;8.33;91.23
63691;BME280;49837;57.280;27.070;2022-10-16T01:41:46;100359.33;;;8.34;91.17
63691;BME280;49837;57.280;27.070;2022-10-16T01:43:01;100360.36;;;8.32;91.11
63691;BME280;49837;57.280;27.070;2022-10-16T01:43:56;100360.73;;;8.3;91.35
63691;BME280;49837;57.280;27.070;2022-10-16T01:44:51;100360.52;;;8.33;91.22
63691;BME280;49837;57.280;27.070;2022-10-16T01:45:52;100360.55;;;8.36;91.1
63691;BME280;49837;57.280;27.070;2022-10-16T01:46:52;100363.06;;;8.35;90.98
63691;BME280;49837;57.280;27.070;2022-10-16T01:47:53;100358.94;;;8.38;90.95
63691;BME280;49837;57.280;27.070;2022-10-16T01:48:52;100361.7;;;8.37;91.0
63691;BME280;49837;57.280;27.070;2022-10-16T01:49:53;100359.66;;;8.34;91.19
63691;BME280;49837;57.280;27.070;2022-10-16T01:51:01;100357.88;;;8.37;91.17
63691;BME280;49837;57.280;27.070;2022-10-16T01:51:58;100362.78;;;8.36;91.26
63691;BME280;49837;57.280;27.070;2022-10-16T01:52:58;100363.97;;;8.39;91.3
63691;BME280;49837;57.280;27.070;2022-10-16T01:54:00;100355.77;;;8.42;91.27
63691;BME280;49837;57.280;27.070;2022-10-16T01:55:00;100358.44;;;8.43;91.39
63691;BME280;49837;57.280;27.070;2022-10-16T01:56:00;100360.61;;;8.41;91.6
63691;BME280;49837;57.280;27.070;2022-10-16T01:57:01;100354.05;;;8.45;91.41
63691;BME280;49837;57.280;27.070;2022-10-16T01:58:03;100353.88;;;8.47;91.4
63691;BME280;49837;57.280;27.070;2022-10-16T01:59:06;100352.45;;;8.43;91.67
63691;BME280;49837;57.280;27.070;2022-10-16T02:00:07;100355.97;;;8.4;91.79
63691;BME280;49837;57.280;27.070;2022-10-16T02:01:07;100352.41;;;8.4;92.05
63691;BME280;49837;57.280;27.070;2022-10-16T02:02:08;100351.7;;;8.38;92.23
63691;BME280;49837;57.280;27.070;2022-10-16T02:03:07;100347.2;;;8.34;92.16
63691;BME280;49837;57.280;27.070;2022-10-16T02:04:14;100348.34;;;8.35;92.37
63691;BME280;49837;57.280;27.070;2022-10-16T02:05:15;100345.37;;;8.34;92.54
63691;BME280;49837;57.280;27.070;2022-10-16T02:06:08;100355.97;;;8.36;92.3
63691;BME280;49837;57.280;27.070;2022-10-16T02:07:09;100353.61;;;8.38;92.48
63691;BME280;49837;57.280;27.070;2022-10-16T02:08:09;100353.88;;;8.38;92.49
63691;BME280;49837;57.280;27.070;2022-10-16T02:09:09;100358.67;;;8.38;92.57
63691;BME280;49837;57.280;27.070;2022-10-16T02:10:10;100359.58;;;8.35;92.51
63691;BME280;49837;57.280;27.070;2022-10-16T02:11:10;100359.0;;;8.34;92.63
63691;BME280;49837;57.280;27.070;2022-10-16T02:12:26;100360.03;;;8.32;92.98
63691;BME280;49837;57.280;27.070;2022-10-16T02:13:21;100356.31;;;8.32;93.12
63691;BME280;49837;57.280;27.070;2022-10-16T02:14:16;100356.89;;;8.31;93.19
63691;BME280;49837;57.280;27.070;2022-10-16T02:15:16;100355.36;;;8.29;93.34
63691;BME280;49837;57.280;27.070;2022-10-16T02:16:17;100354.25;;;8.3;93.31
63691;BME280;49837;57.280;27.070;2022-10-16T02:17:17;100354.34;;;8.25;93.5
63691;BME280;49837;57.280;27.070;2022-10-16T02:18:17;100354.67;;;8.21;93.87
63691;BME280;49837;57.280;27.070;2022-10-16T02:19:18;100350.84;;;8.21;93.86
63691;BME280;49837;57.280;27.070;2022-10-16T02:20:22;100353.67;;;8.21;93.87
63691;BME280;49837;57.280;27.070;2022-10-16T02:21:26;100350.44;;;8.2;93.86
63691;BME280;49837;57.280;27.070;2022-10-16T02:22:33;100349.63;;;8.24;93.75
63691;BME280;49837;57.280;27.070;2022-10-16T02:25:32;100348.27;;;8.21;94.05
63691;BME280;49837;57.280;27.070;2022-10-16T02:28:43;100350.62;;;8.24;93.89
63691;BME280;49837;57.280;27.070;2022-10-16T02:29:40;100351.41;;;8.21;94.16
63691;BME280;49837;57.280;27.070;2022-10-16T02:30:57;100353.92;;;8.2;94.14
63691;BME280;49837;57.280;27.070;2022-10-16T02:31:45;100348.67;;;8.2;94.06
63691;BME280;49837;57.280;27.070;2022-10-16T02:32:45;100348.26;;;8.21;94.02
63691;BME280;49837;57.280;27.070;2022-10-16T02:33:45;100344.34;;;8.21;94.05
63691;BME280;49837;57.280;27.070;2022-10-16T02:34:45;100340.73;;;8.19;94.08
63691;BME280;49837;57.280;27.070;2022-10-16T02:35:46;100338.58;;;8.18;94.08
63691;BME280;49837;57.280;27.070;2022-10-16T02:36:46;100339.03;;;8.17;94.27
63691;BME280;49837;57.280;27.070;2022-10-16T02:37:47;100336.11;;;8.17;94.36
63691;BME280;49837;57.280;27.070;2022-10-16T02:38:46;100334.01;;;8.19;94.3
63691;BME280;49837;57.280;27.070;2022-10-16T02:39:47;100336.44;;;8.22;94.13
63691;BME280;49837;57.280;27.070;2022-10-16T02:40:47;100336.02;;;8.18;94.17
63691;BME280;49837;57.280;27.070;2022-10-16T02:41:47;100339.2;;;8.16;94.56
63691;BME280;49837;57.280;27.070;2022-10-16T02:42:51;100337.7;;;8.17;94.48
63691;BME280;49837;57.280;27.070;2022-10-16T02:43:48;100339.59;;;8.22;94.49
63691;BME280;49837;57.280;27.070;2022-10-16T02:44:49;100337.47;;;8.21;94.46
63691;BME280;49837;57.280;27.070;2022-10-16T02:45:49;100334.16;;;8.25;94.18
63691;BME280;49837;57.280;27.070;2022-10-16T02:46:50;100335.59;;;8.27;93.95
63691;BME280;49837;57.280;27.070;2022-10-16T02:47:50;100335.98;;;8.29;93.99
63691;BME280;49837;57.280;27.070;2022-10-16T02:48:50;100332.76;;;8.33;93.79
63691;BME280;49837;57.280;27.070;2022-10-16T02:49:51;100333.35;;;8.33;93.64
63691;BME280;49837;57.280;27.070;2022-10-16T02:50:51;100333.46;;;8.31;93.76
63691;BME280;49837;57.280;27.070;2022-10-16T02:51:52;100330.8;;;8.31;93.79
63691;BME280;49837;57.280;27.070;2022-10-16T02:52:52;100329.58;;;8.29;93.86
63691;BME280;49837;57.280;27.070;2022-10-16T02:53:53;100330.0;;;8.29;93.88
63691;BME280;49837;57.280;27.070;2022-10-16T02:54:53;100332.29;;;8.31;93.93
63691;BME280;49837;57.280;27.070;2022-10-16T02:55:53;100327.55;;;8.31;93.85
63691;BME280;49837;57.280;27.070;2022-10-16T02:56:54;100324.64;;;8.31;93.89
63691;BME280;49837;57.280;27.070;2022-10-16T02:57:54;100325.35;;;8.29;93.85
63691;BME280;49837;57.280;27.070;2022-10-16T02:58:55;100324.72;;;8.27;93.8
63691;BME280;49837;57.280;27.070;2022-10-16T02:59:55;100323.95;;;8.28;93.91
63691;BME280;49837;57.280;27.070;2022-10-16T03:00:56;100323.75;;;8.26;94.24
63691;BME280;49837;57.280;27.070;2022-10-16T03:01:56;100327.25;;;8.25;94.25
63691;BME280;49837;57.280;27.070;2022-10-16T03:02:56;100323.09;;;8.25;94.27
63691;BME280;49837;57.280;27.070;2022-10-16T03:03:57;100320.52;;;8.21;94.4
63691;BME280;49837;57.280;27.070;2022-10-16T03:04:57;100319.64;;;8.23;94.39
63691;BME280;49837;57.280;27.070;2022-10-16T03:05:58;100314.59;;;8.23;94.49
63691;BME280;49837;57.280;27.070;2022-10-16T03:06:58;100317.97;;;8.24;94.54
63691;BME280;49837;57.280;27.070;2022-10-16T03:07:58;100315.38;;;8.24;94.54
63691;BME280;49837;57.280;27.070;2022-10-16T03:08:59;100312.9;;;8.23;94.57
63691;BME280;49837;57.280;27.070;2022-10-16T03:09:59;100315.64;;;8.24;94.47
63691;BME280;49837;57.280;27.070;2022-10-16T03:11:00;100312.7;;;8.26;94.55
63691;BME280;49837;57.280;27.070;2022-10-16T03:12:00;100314.05;;;8.29;94.53
63691;BME280;49837;57.280;27.070;2022-10-16T03:13:00;100316.66;;;8.28;94.45
63691;BME280;49837;57.280;27.070;2022-10-16T03:14:01;100314.17;;;8.31;94.38
63691;BME280;49837;57.280;27.070;2022-10-16T03:15:01;100316.91;;;8.31;94.47
63691;BME280;49837;57.280;27.070;2022-10-16T03:16:02;100314.31;;;8.29;94.63
63691;BME280;49837;57.280;27.070;2022-10-16T03:17:02;100312.34;;;8.32;94.73
63691;BME280;49837;57.280;27.070;2022-10-16T03:18:03;100309.56;;;8.29;95.13
63691;BME280;49837;57.280;27.070;2022-10-16T03:19:03;100310.47;;;8.3;95.5
63691;BME280;49837;57.280;27.070;2022-10-16T03:20:04;100308.62;;;8.31;95.65
63691;BME280;49837;57.280;27.070;2022-10-16T03:21:04;100311.34;;;8.31;95.89
63691;BME280;49837;57.280;27.070;2022-10-16T03:22:04;100311.11;;;8.3;96.07
63691;BME280;49837;57.280;27.070;2022-10-16T03:23:05;100310.62;;;8.31;96.34
63691;BME280;49837;57.280;27.070;2022-10-16T03:24:05;100314.46;;;8.3;96.5
63691;BME280;49837;57.280;27.070;2022-10-16T03:25:06;100313.22;;;8.25;96.92
63691;BME280;49837;57.280;27.070;2022-10-16T03:26:06;100314.88;;;8.29;96.94
63691;BME280;49837;57.280;27.070;2022-10-16T03:27:06;100315.45;;;8.3;97.01
63691;BME280;49837;57.280;27.070;2022-10-16T03:28:06;100311.53;;;8.25;97.38
63691;BME280;49837;57.280;27.070;2022-10-16T03:29:07;100311.06;;;8.29;97.56
63691;BME280;49837;57.280;27.070;2022-10-16T03:30:08;100312.11;;;8.35;97.34
63691;BME280;49837;57.280;27.070;2022-10-16T03:31:08;100313.41;;;8.32;97.44
63691;BME280;49837;57.280;27.070;2022-10-16T03:32:08;100310.89;;;8.29;97.85
63691;BME280;49837;57.280;27.070;2022-10-16T03:33:08;100306.34;;;8.27;98.14
63691;BME280;49837;57.280;27.070;2022-10-16T03:34:09;100301.27;;;8.24;98.46
63691;BME280;49837;57.280;27.070;2022-10-16T03:35:09;100307.31;;;8.25;98.68
63691;BME280;49837;57.280;27.070;2022-10-16T03:36:10;100307.5;;;8.29;98.79
63691;BME280;49837;57.280;27.070;2022-10-16T03:37:10;100302.83;;;8.25;98.91
63691;BME280;49837;57.280;27.070;2022-10-16T03:38:10;100298.19;;;8.24;99.04
63691;BME280;49837;57.280;27.070;2022-10-16T03:39:11;100304.17;;;8.24;99.06
63691;BME280;49837;57.280;27.070;2022-10-16T03:40:13;100301.11;;;8.28;99.08
63691;BME280;49837;57.280;27.070;2022-10-16T03:41:12;100300.48;;;8.26;99.3
63691;BME280;49837;57.280;27.070;2022-10-16T03:42:12;100306.52;;;8.23;99.58
63691;BME280;49837;57.280;27.070;2022-10-16T03:43:13;100307.4;;;8.24;99.75
63691;BME280;49837;57.280;27.070;2022-10-16T03:44:13;100306.73;;;8.25;99.89
63691;BME280;49837;57.280;27.070;2022-10-16T03:45:14;100303.42;;;8.23;99.99
63691;BME280;49837;57.280;27.070;2022-10-16T03:46:14;100308.44;;;8.23;100.0
63691;BME280;49837;57.280;27.070;2022-10-16T03:47:14;100307.27;;;8.22;100.0
63691;BME280;49837;57.280;27.070;2022-10-16T03:48:15;100308.14;;;8.25;100.0
63691;BME280;49837;57.280;27.070;2022-10-16T03:49:15;100307.77;;;8.27;100.0
63691;BME280;49837;57.280;27.070;2022-10-16T03:50:16;100308.5;;;8.24;100.0
63691;BME280;49837;57.280;27.070;2022-10-16T03:51:16;100306.85;;;8.23;100.0
63691;BME280;49837;57.280;27.070;2022-10-16T03:52:16;100304.13;;;8.22;100.0
63691;BME280;49837;57.280;27.070;2022-10-16T03:53:17;100306.62;;;8.22;100.0
63691;BME280;49837;57.280;27.070;2022-10-16T03:54:17;100302.7;;;8.22;100.0
63691;BME280;49837;57.280;27.070;2022-10-16T03:55:17;100300.68;;;8.24;100.0
63691;BME280;49837;57.280;27.070;2022-10-16T03:56:18;100300.33;;;8.25;100.0
63691;BME280;49837;57.280;27.070;2022-10-16T03:57:18;100303.01;;;8.24;100.0
63691;BME280;49837;57.280;27.070;2022-10-16T03:58:19;100300.35;;;8.24;100.0
63691;BME280;49837;57.280;27.070;2022-10-16T03:59:19;100304.06;;;8.26;100.0
63691;BME280;49837;57.280;27.070;2022-10-16T04:00:19;100298.17;;;8.25;100.0
63691;BME280;49837;57.280;27.070;2022-10-16T04:01:20;100295.34;;;8.16;100.0
63691;BME280;49837;57.280;27.070;2022-10-16T04:02:20;100301.01;;;8.19;100.0
63691;BME280;49837;57.280;27.070;2022-10-16T04:03:21;100292.7;;;8.19;100.0
63691;BME280;49837;57.280;27.070;2022-10-16T04:04:21;100289.75;;;8.13;100.0
63691;BME280;49837;57.280;27.070;2022-10-16T04:05:21;100288.92;;;8.17;100.0
63691;BME280;49837;57.280;27.070;2022-10-16T04:06:22;100297.38;;;8.23;100.0
63691;BME280;49837;57.280;27.070;2022-10-16T04:07:22;100291.66;;;8.23;100.0
63691;BME280;49837;57.280;27.070;2022-10-16T04:08:23;100288.75;;;8.26;100.0
63691;BME280;49837;57.280;27.070;2022-10-16T04:09:23;100291.89;;;8.27;100.0
63691;BME280;49837;57.280;27.070;2022-10-16T04:10:23;100296.06;;;8.27;100.0
63691;BME280;49837;57.280;27.070;2022-10-16T04:11:24;100298.8;;;8.28;100.0
63691;BME280;49837;57.280;27.070;2022-10-16T04:12:25;100302.18;;;8.29;100.0
63691;BME280;49837;57.280;27.070;2022-10-16T04:13:25;100299.0;;;8.3;100.0
63691;BME280;49837;57.280;27.070;2022-10-16T04:14:25;100303.38;;;8.27;100.0
63691;BME280;49837;57.280;27.070;2022-10-16T04:15:26;100304.43;;;8.28;100.0
63691;BME280;49837;57.280;27.070;2022-10-16T04:16:26;100301.71;;;8.26;100.0
63691;BME280;49837;57.280;27.070;2022-10-16T04:17:26;100305.88;;;8.27;100.0
63691;BME280;49837;57.280;27.070;2022-10-16T04:18:27;100299.88;;;8.31;100.0
63691;BME280;49837;57.280;27.070;2022-10-16T04:19:27;100301.64;;;8.35;100.0
63691;BME280;49837;57.280;27.070;2022-10-16T04:20:28;100310.06;;;8.33;100.0
63691;BME280;49837;57.280;27.070;2022-10-16T04:21:28;100304.8;;;8.35;100.0
63691;BME280;49837;57.280;27.070;2022-10-16T04:22:28;100303.0;;;8.33;100.0
63691;BME280;49837;57.280;27.070;2022-10-16T04:23:29;100303.61;;;8.31;100.0
63691;BME280;49837;57.280;27.070;2022-10-16T04:24:29;100301.91;;;8.3;100.0
63691;BME280;49837;57.280;27.070;2022-10-16T04:25:30;100298.27;;;8.29;100.0
63691;BME280;49837;57.280;27.070;2022-10-16T04:26:30;100299.42;;;8.29;100.0
63691;BME280;49837;57.280;27.070;2022-10-16T04:27:31;100300.65;;;8.31;100.0
63691;BME280;49837;57.280;27.070;2022-10-16T04:28:31;100298.27;;;8.33;100.0
63691;BME280;49837;57.280;27.070;2022-10-16T04:29:31;100298.04;;;8.37;100.0
63691;BME280;49837;57.280;27.070;2022-10-16T04:30:32;100295.77;;;8.38;100.0
63691;BME280;49837;57.280;27.070;2022-10-16T04:31:32;100302.73;;;8.34;100.0
63691;BME280;49837;57.280;27.070;2022-10-16T04:32:32;100300.28;;;8.33;100.0
63691;BME280;49837;57.280;27.070;2022-10-16T04:33:33;100302.31;;;8.35;100.0
63691;BME280;49837;57.280;27.070;2022-10-16T04:34:33;100299.05;;;8.36;100.0
63691;BME280;49837;57.280;27.070;2022-10-16T04:35:34;100300.75;;;8.38;100.0
63691;BME280;49837;57.280;27.070;2022-10-16T04:36:34;100297.34;;;8.39;100.0
63691;BME280;49837;57.280;27.070;2022-10-16T04:37:35;100298.87;;;8.41;100.0
63691;BME280;49837;57.280;27.070;2022-10-16T04:38:35;100297.81;;;8.44;100.0
63691;BME280;49837;57.280;27.070;2022-10-16T04:39:35;100298.03;;;8.45;100.0
63691;BME280;49837;57.280;27.070;2022-10-16T04:40:36;100301.64;;;8.44;100.0
63691;BME280;49837;57.280;27.070;2022-10-16T04:41:36;100303.44;;;8.47;100.0
63691;BME280;49837;57.280;27.070;2022-10-16T04:42:37;100300.9;;;8.48;100.0
63691;BME280;49837;57.280;27.070;2022-10-16T04:43:37;100301.01;;;8.46;100.0
63691;BME280;49837;57.280;27.070;2022-10-16T04:44:37;100303.08;;;8.5;100.0
63691;BME280;49837;57.280;27.070;2022-10-16T04:45:38;100301.34;;;8.52;100.0
63691;BME280;49837;57.280;27.070;2022-10-16T04:46:38;100296.27;;;8.48;100.0
63691;BME280;49837;57.280;27.070;2022-10-16T04:47:39;100299.48;;;8.45;100.0
63691;BME280;49837;57.280;27.070;2022-10-16T04:48:39;100299.87;;;8.51;100.0
63691;BME280;49837;57.280;27.070;2022-10-16T04:49:40;100303.16;;;8.53;100.0
63691;BME280;49837;57.280;27.070;2022-10-16T04:50:41;100309.62;;;8.5;100.0
63691;BME280;49837;57.280;27.070;2022-10-16T04:51:40;100301.89;;;8.48;100.0
63691;BME280;49837;57.280;27.070;2022-10-16T04:52:41;100306.69;;;8.51;100.0
63691;BME280;49837;57.280;27.070;2022-10-16T04:53:41;100300.03;;;8.51;100.0
63691;BME280;49837;57.280;27.070;2022-10-16T04:54:41;100299.08;;;8.49;100.0
63691;BME280;49837;57.280;27.070;2022-10-16T04:55:42;100302.56;;;8.48;100.0
63691;BME280;49837;57.280;27.070;2022-10-16T04:56:42;100305.06;;;8.54;100.0
63691;BME280;49837;57.280;27.070;2022-10-16T04:57:43;100303.83;;;8.53;100.0
63691;BME280;49837;57.280;27.070;2022-10-16T04:58:43;100304.38;;;8.55;100.0
63691;BME280;49837;57.280;27.070;2022-10-16T04:59:44;100302.22;;;8.55;100.0
63691;BME280;49837;57.280;27.070;2022-10-16T05:00:44;100305.48;;;8.58;100.0
63691;BME280;49837;57.280;27.070;2022-10-16T05:01:45;100302.84;;;8.57;100.0
63691;BME280;49837;57.280;27.070;2022-10-16T05:02:45;100302.64;;;8.59;100.0
63691;BME280;49837;57.280;27.070;2022-10-16T05:03:45;100298.38;;;8.61;100.0
63691;BME280;49837;57.280;27.070;2022-10-16T05:04:45;100301.74;;;8.61;100.0
63691;BME280;49837;57.280;27.070;2022-10-16T05:05:46;100302.48;;;8.62;100.0
63691;BME280;49837;57.280;27.070;2022-10-16T05:06:47;100301.38;;;8.64;100.0
63691;BME280;49837;57.280;27.070;2022-10-16T05:07:47;100291.41;;;8.67;100.0
63691;BME280;49837;57.280;27.070;2022-10-16T05:08:47;100293.84;;;8.66;100.0
63691;BME280;49837;57.280;27.070;2022-10-16T05:09:48;100296.48;;;8.68;100.0
63691;BME280;49837;57.280;27.070;2022-10-16T05:10:48;100297.38;;;8.69;100.0
63691;BME280;49837;57.280;27.070;2022-10-16T05:11:48;100300.36;;;8.7;100.0
63691;BME280;49837;57.280;27.070;2022-10-16T05:12:49;100295.41;;;8.68;100.0
63691;BME280;49837;57.280;27.070;2022-10-16T05:13:49;100299.02;;;8.7;100.0
63691;BME280;49837;57.280;27.070;2022-10-16T05:14:52;100305.13;;;8.72;100.0
63691;BME280;49837;57.280;27.070;2022-10-16T05:15:52;100301.12;;;8.72;100.0
63691;BME280;49837;57.280;27.070;2022-10-16T05:16:52;100296.45;;;8.74;100.0
63691;BME280;49837;57.280;27.070;2022-10-16T05:17:53;100297.59;;;8.75;100.0
63691;BME280;49837;57.280;27.070;2022-10-16T05:18:53;100295.55;;;8.76;100.0
63691;BME280;49837;57.280;27.070;2022-10-16T05:19:56;100297.81;;;8.77;100.0
63691;BME280;49837;57.280;27.070;2022-10-16T05:20:56;100302.57;;;8.79;100.0
63691;BME280;49837;57.280;27.070;2022-10-16T05:21:57;100305.08;;;8.78;100.0
63691;BME280;49837;57.280;27.070;2022-10-16T05:22:57;100300.7;;;8.81;100.0
63691;BME280;49837;57.280;27.070;2022-10-16T05:23:58;100302.44;;;8.82;100.0
63691;BME280;49837;57.280;27.070;2022-10-16T05:24:58;100303.41;;;8.83;100.0
63691;BME280;49837;57.280;27.070;2022-10-16T05:25:59;100302.34;;;8.82;100.0
63691;BME280;49837;57.280;27.070;2022-10-16T05:26:59;100300.46;;;8.81;100.0
63691;BME280;49837;57.280;27.070;2022-10-16T05:27:59;100303.91;;;8.83;100.0
63691;BME280;49837;57.280;27.070;2022-10-16T05:29:00;100304.59;;;8.81;100.0
63691;BME280;49837;57.280;27.070;2022-10-16T05:30:00;100301.84;;;8.83;100.0
63691;BME280;49837;57.280;27.070;2022-10-16T05:31:10;100300.69;;;8.83;100.0
63691;BME280;49837;57.280;27.070;2022-10-16T05:32:02;100306.52;;;8.86;100.0
63691;BME280;49837;57.280;27.070;2022-10-16T05:33:02;100305.25;;;8.86;100.0
63691;BME280;49837;57.280;27.070;2022-10-16T05:34:03;100305.12;;;8.89;100.0
63691;BME280;49837;57.280;27.070;2022-10-16T05:35:04;100302.88;;;8.88;100.0
63691;BME280;49837;57.280;27.070;2022-10-16T05:36:08;100302.36;;;8.89;100.0
63691;BME280;49837;57.280;27.070;2022-10-16T05:37:06;100298.42;;;8.91;100.0
63691;BME280;49837;57.280;27.070;2022-10-16T05:38:07;100294.95;;;8.9;100.0
63691;BME280;49837;57.280;27.070;2022-10-16T05:39:07;100293.7;;;8.9;100.0
63691;BME280;49837;57.280;27.070;2022-10-16T05:40:09;100295.81;;;8.92;100.0
63691;BME280;49837;57.280;27.070;2022-10-16T05:41:08;100295.7;;;8.97;100.0
63691;BME280;49837;57.280;27.070;2022-10-16T05:42:08;100295.82;;;8.96;100.0
63691;BME280;49837;57.280;27.070;2022-10-16T05:43:09;100297.55;;;9.01;100.0
63691;BME280;49837;57.280;27.070;2022-10-16T05:44:09;100296.59;;;8.96;100.0
63691;BME280;49837;57.280;27.070;2022-10-16T05:45:10;100297.73;;;8.97;100.0